Winfield, MO (63389)

8:51 PM CDT on October 01, 2014 (GMT -0500)
Batchtown | Change Station
CLOSE
Current Station
Personal Weather Station
Location: Batchtown, IL
Elevation: 590 ft
Nearby Weather Stations

Elev 590 ft 39.04 °N, 90.67 °W | Updated 2 minutes ago

Thunderstorm
Thunderstorm
67.3 °F
Feels Like 67.3 °F
N
2.0
Wind Variable Wind from NW
Gusts 7.0 mph

Today
High -- | Low -- °F
--% Chance of Precip.
Yesterday
High -- | Low -- °F
Precip. -- in
6:58 AM 6:45 PM
First Quarter, 53% visible
Pressure 29.83 in
Visibility 9.0 miles
Clouds Mostly Cloudy 5000 ft
Overcast 11000 ft
Dew Point 66 °F
Humidity 96%
Rainfall 0.50 in
Snow Depth Not available.
UV 0 out of 12
Pollen 5.50 out of 12
Air Quality Not available.
Flu Activity Not available.
SPECI KSET 020129Z AUTO 32011KT 9SM VCTS BKN050 OVC110 23/18 A2983 RMK AO1 LTG DSNT W-N T02330183

More Conditions Fewer Conditions

Pressure 29.83 in
Visibility 9.0 miles
Clouds Mostly Cloudy 5000 ft
Overcast 11000 ft
Dew Point 66 °F
Humidity 96%
Rainfall 0.50 in
Snow Depth Not available.
UV 0 out of 12
Pollen 5.50 out of 12
Air Quality Not available.
Flu Activity Not available.
SPECI KSET 020129Z AUTO 32011KT 9SM VCTS BKN050 OVC110 23/18 A2983 RMK AO1 LTG DSNT W-N T02330183

More Conditions Fewer Conditions

10-Day Weather Forecast

Almanac

Astronomy

Oct. 01, 2014 Rise Set
Actual Time 6:58 AM CDT 6:45 PM CDT
Civil Twilight 6:32 AM CDT 7:12 PM CDT
Nautical Twilight 6:01 AM CDT 7:43 PM CDT
Astronomical Twilight 5:30 AM CDT 8:14 PM CDT
Moon 1:57 PM CDT (10/1) No Moon Set
Length of Visible Light 12h 39m
Length of Day
11h 46m
Tomorrow will be 2m 31s shorter.
First Quarter, 53% of the Moon is Illuminated
Today
First Quarter
Oct 8
Full
Oct 15
Last Quarter
Oct 23
New
Oct 30
First Quarter

Today's Extremes

State Highs State Lows

Community

WunderPhotos

Upload Photos

1,758,118 photos uploaded!

WunderBlogs® & News

Nearby

Snow Depth

Station Depth Elevation
No new snow has been reported.

Earthquake Activity

City Distance Mag. Time & Date
No recent earthquake activity has been reported nearby.
Minimum magnitude displayed is 2.5.

Coastal Water Temperatures

Place Temperature
No Stations Reporting

Nearby Weather Stations